createdAt,value
2022-10-26T00:00:28.625Z,8.86
2022-10-26T00:05:33.207Z,8.80
2022-10-26T00:10:36.182Z,8.77
2022-10-26T00:15:42.973Z,8.70
2022-10-26T00:20:44.848Z,8.78
2022-10-26T00:25:54.470Z,8.85
2022-10-26T00:31:01.822Z,8.95
2022-10-26T00:36:04.631Z,8.90
2022-10-26T00:41:06.710Z,8.78
2022-10-26T00:46:32.312Z,8.64
2022-10-26T00:51:44.863Z,8.52
2022-10-26T00:56:54.377Z,8.42
2022-10-26T01:01:56.275Z,8.39
2022-10-26T01:06:59.294Z,8.37
2022-10-26T01:12:01.325Z,8.29
2022-10-26T01:17:28.618Z,8.23
2022-10-26T01:22:35.409Z,8.27
2022-10-26T01:27:47.563Z,8.22
2022-10-26T01:33:08.489Z,8.10
2022-10-26T01:38:15.065Z,8.00
2022-10-26T01:43:18.741Z,7.91
2022-10-26T01:48:23.063Z,7.79
2022-10-26T01:53:28.608Z,7.69
2022-10-26T01:58:55.036Z,7.62
2022-10-26T02:04:27.539Z,7.58
2022-10-26T02:09:39.158Z,7.62
2022-10-26T02:14:49.062Z,7.73
2022-10-26T02:19:59.541Z,7.83
2022-10-26T02:25:09.331Z,7.87
2022-10-26T02:30:13.120Z,7.92
2022-10-26T02:35:16.904Z,7.98
2022-10-26T02:40:22.405Z,8.17
2022-10-26T02:45:29.529Z,8.30
2022-10-26T02:50:54.328Z,8.25
2022-10-26T02:55:58.586Z,8.18
2022-10-26T03:01:00.706Z,8.05
2022-10-26T03:06:02.681Z,8.01
2022-10-26T03:11:04.598Z,7.93
2022-10-26T03:16:06.941Z,7.90
2022-10-26T03:21:08.830Z,7.85
2022-10-26T03:26:10.657Z,7.79
2022-10-26T03:31:12.884Z,7.74
2022-10-26T03:36:14.917Z,7.68
2022-10-26T03:41:16.900Z,7.55
2022-10-26T03:46:19.230Z,7.42
2022-10-26T03:51:21.433Z,7.38
2022-10-26T03:56:23.505Z,7.35
2022-10-26T04:01:25.521Z,7.26
2022-10-26T04:06:27.760Z,7.15
2022-10-26T04:11:30.030Z,6.98
2022-10-26T04:16:33.458Z,6.89
2022-10-26T04:21:35.544Z,6.68
2022-10-26T04:26:37.702Z,6.56
2022-10-26T04:31:39.929Z,6.56
2022-10-26T04:36:42.071Z,6.54
2022-10-26T04:41:44.118Z,6.41
2022-10-26T04:46:46.060Z,6.32
2022-10-26T04:51:48.243Z,6.28
2022-10-26T04:56:51.737Z,6.25
2022-10-26T05:01:53.575Z,6.25
2022-10-26T05:06:55.754Z,6.07
2022-10-26T05:11:57.561Z,6.01
2022-10-26T05:16:59.462Z,6.03
2022-10-26T05:22:01.396Z,6.00
2022-10-26T05:27:03.349Z,5.92
2022-10-26T05:32:05.207Z,5.87
2022-10-26T05:37:06.989Z,5.92
2022-10-26T05:42:09.323Z,5.94
2022-10-26T05:47:11.092Z,6.05
2022-10-26T05:52:23.927Z,6.23
2022-10-26T05:57:26.885Z,6.41
2022-10-26T06:02:48.296Z,6.58
2022-10-26T06:07:51.069Z,6.74
2022-10-26T06:12:54.127Z,6.93
2022-10-26T06:18:02.267Z,7.15
2022-10-26T06:23:30.421Z,7.35
2022-10-26T06:28:38.236Z,7.53
2022-10-26T06:33:40.928Z,7.73
2022-10-26T06:38:44.776Z,7.91
2022-10-26T06:43:47.368Z,8.21
2022-10-26T06:49:24.007Z,8.49
2022-10-26T06:54:54.786Z,8.83
2022-10-26T07:00:04.882Z,9.20
2022-10-26T07:05:12.807Z,9.57
2022-10-26T07:10:28.970Z,9.96
2022-10-26T07:15:45.127Z,10.36
2022-10-26T07:20:47.039Z,10.65
2022-10-26T07:25:48.797Z,10.87
2022-10-26T07:30:55.256Z,11.08
2022-10-26T07:35:59.131Z,11.30
2022-10-26T07:41:02.464Z,11.43
2022-10-26T07:46:04.586Z,11.64
2022-10-26T07:51:06.418Z,11.85
2022-10-26T07:56:10.545Z,11.97
2022-10-26T08:01:14.957Z,12.06
2022-10-26T08:06:17.013Z,12.17
2022-10-26T08:11:19.309Z,12.29
2022-10-26T08:16:22.530Z,12.37
2022-10-26T08:21:36.087Z,12.53
2022-10-26T08:26:42.295Z,12.71
2022-10-26T08:31:45.103Z,12.90
2022-10-26T08:36:47.307Z,13.16
2022-10-26T08:41:56.374Z,13.44
2022-10-26T08:47:04.462Z,13.75
2022-10-26T08:52:09.771Z,14.02
2022-10-26T08:57:26.922Z,14.23
2022-10-26T09:02:29.443Z,14.52
2022-10-26T09:07:59.207Z,14.87
2022-10-26T09:13:24.753Z,15.19
2022-10-26T09:24:05.251Z,15.81
2022-10-26T09:29:12.796Z,16.17
2022-10-26T09:34:20.671Z,16.54
2022-10-26T09:39:40.168Z,16.76
2022-10-26T09:45:18.098Z,16.99
2022-10-26T09:50:26.268Z,17.18
2022-10-26T09:55:30.540Z,17.36
2022-10-26T10:05:53.268Z,17.76
2022-10-26T10:10:57.317Z,17.88
2022-10-26T10:16:04.845Z,18.00
2022-10-26T10:21:08.183Z,18.30
2022-10-26T10:26:25.019Z,18.57
2022-10-26T10:31:32.422Z,18.54
2022-10-26T10:36:34.522Z,18.66
2022-10-26T10:41:36.864Z,18.62
2022-10-26T10:46:38.989Z,18.67
2022-10-26T10:51:41.558Z,18.58
2022-10-26T10:56:52.201Z,18.83
2022-10-26T11:02:03.737Z,19.07
2022-10-26T11:07:07.799Z,18.95
2022-10-26T11:12:18.119Z,19.10
2022-10-26T11:17:24.139Z,19.12
2022-10-26T11:22:36.003Z,19.07
2022-10-26T11:27:56.477Z,19.09
2022-10-26T11:33:13.965Z,19.32
2022-10-26T11:38:20.769Z,19.53
2022-10-26T11:44:03.979Z,19.55
2022-10-26T11:49:42.258Z,19.69
2022-10-26T11:54:55.641Z,20.01
2022-10-26T12:00:03.018Z,20.19
2022-10-26T12:05:16.249Z,20.31
2022-10-26T12:10:40.969Z,20.36
2022-10-26T12:16:09.906Z,20.37
2022-10-26T12:21:15.145Z,20.42
2022-10-26T12:26:40.111Z,20.15
2022-10-26T12:31:43.817Z,20.14
2022-10-26T12:36:49.325Z,20.46
2022-10-26T12:42:09.431Z,20.77
2022-10-26T12:47:31.462Z,20.72
2022-10-26T12:52:56.949Z,20.47
2022-10-26T12:58:28.274Z,20.41
2022-10-26T13:03:39.207Z,20.56
2022-10-26T13:09:04.021Z,20.71
2022-10-26T13:14:16.417Z,21.20
2022-10-26T13:19:43.589Z,21.55
2022-10-26T13:24:54.703Z,21.27
2022-10-26T13:30:05.301Z,20.83
2022-10-26T13:35:13.414Z,20.66
2022-10-26T13:40:25.375Z,20.59
2022-10-26T13:45:49.492Z,20.51
2022-10-26T13:50:54.906Z,20.18
2022-10-26T13:56:08.809Z,19.78
2022-10-26T14:01:11.994Z,19.59
2022-10-26T14:06:23.944Z,19.72
2022-10-26T14:11:49.161Z,19.66
2022-10-26T14:16:53.525Z,19.71
2022-10-26T14:21:56.637Z,19.57
2022-10-26T14:26:59.600Z,19.39
2022-10-26T14:32:01.366Z,19.42
2022-10-26T14:37:06.056Z,19.45
2022-10-26T14:42:19.154Z,19.18
2022-10-26T14:47:27.179Z,19.20
2022-10-26T14:52:32.853Z,19.35
2022-10-26T14:57:37.641Z,19.18
2022-10-26T15:02:40.214Z,18.76
2022-10-26T15:07:44.785Z,18.47
2022-10-26T15:12:47.008Z,18.17
2022-10-26T15:17:54.661Z,17.76
2022-10-26T15:23:03.522Z,17.26
2022-10-26T15:28:21.304Z,16.88
2022-10-26T15:33:23.059Z,16.45
2022-10-26T15:38:28.586Z,15.87
2022-10-26T15:43:31.798Z,15.35
2022-10-26T15:48:34.386Z,14.89
2022-10-26T15:53:36.363Z,14.52
2022-10-26T15:58:38.393Z,14.21
2022-10-26T16:03:40.332Z,13.87
2022-10-26T16:08:49.203Z,13.57
2022-10-26T16:13:51.523Z,13.39
2022-10-26T16:19:01.608Z,13.11
2022-10-26T16:24:17.434Z,12.93
2022-10-26T16:29:20.538Z,12.66
2022-10-26T16:34:32.441Z,12.35
2022-10-26T16:39:34.945Z,12.03
2022-10-26T16:44:38.337Z,11.75
2022-10-26T16:49:49.842Z,11.50
2022-10-26T16:54:55.017Z,11.36
2022-10-26T16:59:57.879Z,11.14
2022-10-26T17:05:02.732Z,10.93
2022-10-26T17:10:08.565Z,10.63
2022-10-26T17:15:13.703Z,10.42
2022-10-26T17:20:17.187Z,10.30
2022-10-26T17:25:19.264Z,10.23
2022-10-26T17:30:21.101Z,10.11
2022-10-26T17:35:23.457Z,9.99
2022-10-26T17:40:25.739Z,9.81
2022-10-26T17:45:28.211Z,9.68
2022-10-26T17:50:30.363Z,9.62
2022-10-26T17:55:32.372Z,9.56
2022-10-26T18:00:34.450Z,9.37
2022-10-26T18:05:36.204Z,9.21
2022-10-26T18:10:38.473Z,9.10
2022-10-26T18:15:40.795Z,9.00
2022-10-26T18:20:42.940Z,8.92
2022-10-26T18:25:44.885Z,8.88
2022-10-26T18:30:46.977Z,8.85
2022-10-26T18:35:48.901Z,8.80
2022-10-26T18:40:56.283Z,8.73
2022-10-26T18:46:18.970Z,8.53
2022-10-26T18:51:26.229Z,8.41
2022-10-26T18:56:28.511Z,8.32
2022-10-26T19:01:34.170Z,8.23
2022-10-26T19:06:45.111Z,8.12
2022-10-26T19:11:47.356Z,8.14
2022-10-26T19:16:53.537Z,8.27
2022-10-26T19:21:56.121Z,8.42
2022-10-26T19:26:59.135Z,8.50
2022-10-26T19:32:02.971Z,8.55
2022-10-26T19:37:05.654Z,8.55
2022-10-26T19:42:07.833Z,8.44
2022-10-26T19:47:10.321Z,8.37
2022-10-26T19:52:14.284Z,8.29
2022-10-26T19:57:19.526Z,8.30
2022-10-26T20:02:21.305Z,8.43
2022-10-26T20:07:23.367Z,8.58
2022-10-26T20:12:26.576Z,8.57
2022-10-26T20:17:28.946Z,8.50
2022-10-26T20:22:30.779Z,8.40
2022-10-26T20:27:32.591Z,8.24
2022-10-26T20:32:34.799Z,8.09
2022-10-26T20:37:37.085Z,8.11
2022-10-26T20:42:39.671Z,8.08
2022-10-26T20:47:45.566Z,8.07
2022-10-26T20:52:55.359Z,8.04
2022-10-26T20:58:07.632Z,7.97
2022-10-26T21:03:10.074Z,7.86
2022-10-26T21:08:12.003Z,7.85
2022-10-26T21:13:19.508Z,7.71
2022-10-26T21:18:29.890Z,7.61
2022-10-26T21:23:36.766Z,7.49
2022-10-26T21:28:46.956Z,7.37
2022-10-26T21:33:49.156Z,7.31
2022-10-26T21:38:51.266Z,7.45
2022-10-26T21:44:03.375Z,7.63
2022-10-26T21:49:11.096Z,7.81
2022-10-26T21:54:13.219Z,7.99
2022-10-26T21:59:15.298Z,8.09
2022-10-26T22:04:18.833Z,8.16
2022-10-26T22:09:20.865Z,8.24
2022-10-26T22:14:22.757Z,8.32
2022-10-26T22:19:24.875Z,8.43
2022-10-26T22:24:26.643Z,8.54
2022-10-26T22:29:28.750Z,8.65
2022-10-26T22:34:30.967Z,8.73
2022-10-26T22:39:32.717Z,8.76
2022-10-26T22:44:34.797Z,8.74
2022-10-26T22:49:36.816Z,8.67
2022-10-26T22:54:38.635Z,8.64
2022-10-26T22:59:40.393Z,8.59
2022-10-26T23:04:42.276Z,8.54
2022-10-26T23:09:49.793Z,8.56
2022-10-26T23:14:57.573Z,8.65
2022-10-26T23:20:02.410Z,8.75
2022-10-26T23:25:04.738Z,8.84
2022-10-26T23:30:07.894Z,8.90
2022-10-26T23:35:10.017Z,8.94
2022-10-26T23:40:12.425Z,8.92
2022-10-26T23:45:14.182Z,8.88
2022-10-26T23:50:16.592Z,8.87
2022-10-26T23:55:18.618Z,8.80
